Time;durP1;ratioP1;P1;durP2;ratioP2;P2;SDS_P1;SDS_P2;PMS_P1;PMS_P2;Temp;Humidity;BMP_temperature;BMP_pressure;BME280_temperature;BME280_humidity;BME280_pressure;Samples;Min_cycle;Max_cycle;Signal;HPM_P1;HPM_P2
2023/12/01 00:00:17;;;;;;;2.22;1.55;;;;;;;;;;5110094;28;20048;-74
2023/12/01 00:02:43;;;;;;;2.65;1.52;;;;;;;;;;5109542;28;20051;-74
2023/12/01 00:05:10;;;;;;;2.15;1.45;;;;;;;;;;5109482;28;20514;-74
2023/12/01 00:07:37;;;;;;;2.78;1.58;;;;;;;;;;5109681;28;20054;-73
2023/12/01 00:10:09;;;;;;;2.20;1.50;;;;;;;;;;5109221;28;20050;-73
2023/12/01 00:12:36;;;;;;;4.47;1.13;;;;;;;;;;5109795;28;20043;-73
2023/12/01 00:15:03;;;;;;;1.00;0.70;;;;;;;;;;5109238;28;20052;-73
2023/12/01 00:17:30;;;;;;;1.05;0.65;;;;;;;;;;5109822;28;20101;-73
2023/12/01 00:19:56;;;;;;;0.80;0.60;;;;;;;;;;5109016;28;20051;-73
2023/12/01 00:22:23;;;;;;;0.98;0.70;;;;;;;;;;5109323;28;20051;-73
2023/12/01 00:24:53;;;;;;;1.17;0.73;;;;;;;;;;5108807;28;20561;-72
2023/12/01 00:27:19;;;;;;;0.73;0.60;;;;;;;;;;5109377;28;20479;-72
2023/12/01 00:29:46;;;;;;;1.55;0.77;;;;;;;;;;5108757;28;20040;-73
2023/12/01 00:32:13;;;;;;;1.15;0.52;;;;;;;;;;5109373;28;20039;-73
2023/12/01 00:34:40;;;;;;;0.73;0.50;;;;;;;;;;5090780;28;20647;-72
2023/12/01 00:37:08;;;;;;;0.90;0.60;;;;;;;;;;5109408;28;20054;-72
2023/12/01 00:39:34;;;;;;;0.95;0.55;;;;;;;;;;5108452;28;20504;-72
2023/12/01 00:42:01;;;;;;;0.60;0.40;;;;;;;;;;5109038;28;20491;-72
2023/12/01 00:44:28;;;;;;;0.60;0.40;;;;;;;;;;5108697;28;20044;-72
2023/12/01 00:46:55;;;;;;;1.08;0.30;;;;;;;;;;5108976;28;20535;-72
2023/12/01 00:49:24;;;;;;;0.47;0.30;;;;;;;;;;5108917;28;20333;-72
2023/12/01 00:51:51;;;;;;;0.90;0.40;;;;;;;;;;5108939;28;20511;-71
2023/12/01 00:54:17;;;;;;;0.60;0.30;;;;;;;;;;5108517;28;20517;-71
2023/12/01 00:56:44;;;;;;;0.57;0.38;;;;;;;;;;5109284;28;20047;-72
2023/12/01 00:59:12;;;;;;;0.32;0.22;;;;;;;;;;5108699;28;20055;-73
2023/12/01 01:01:39;;;;;;;0.90;0.40;;;;;;;;;;5109051;28;20067;-72
2023/12/01 01:04:06;;;;;;;0.08;0.08;;;;;;;;;;5108222;28;20046;-72
2023/12/01 01:06:35;;;;;;;0.20;0.20;;;;;;;;;;5108871;28;20055;-72
2023/12/01 01:09:03;;;;;;;0.60;0.32;;;;;;;;;;5108318;28;20058;-73
2023/12/01 01:11:30;;;;;;;0.50;0.30;;;;;;;;;;5108961;28;20047;-72
2023/12/01 01:13:56;;;;;;;1.00;0.40;;;;;;;;;;5108618;28;20048;-72
2023/12/01 01:16:25;;;;;;;0.63;0.38;;;;;;;;;;5108705;28;20048;-73
2023/12/01 01:18:52;;;;;;;1.00;0.40;;;;;;;;;;5108316;28;20043;-72
2023/12/01 01:21:19;;;;;;;0.40;0.25;;;;;;;;;;5108305;28;20495;-72
2023/12/01 01:23:46;;;;;;;0.77;0.35;;;;;;;;;;5110805;28;20074;-74
2023/12/01 01:26:14;;;;;;;0.63;0.30;;;;;;;;;;5119418;28;20411;-74
2023/12/01 01:28:41;;;;;;;0.60;0.20;;;;;;;;;;5118571;28;20419;-73
2023/12/01 01:31:07;;;;;;;0.68;0.32;;;;;;;;;;5117152;28;20951;-73
2023/12/01 01:33:36;;;;;;;0.40;0.30;;;;;;;;;;5108274;28;20096;-73
2023/12/01 01:36:04;;;;;;;0.60;0.38;;;;;;;;;;5108245;28;20099;-72
2023/12/01 01:38:30;;;;;;;0.70;0.28;;;;;;;;;;5107808;28;20050;-74
2023/12/01 01:40:57;;;;;;;0.30;0.22;;;;;;;;;;5108590;28;20130;-74
2023/12/01 01:43:24;;;;;;;0.68;0.40;;;;;;;;;;5111697;28;20056;-73
2023/12/01 01:46:01;;;;;;;0.73;0.30;;;;;;;;;;5111683;28;20039;-73
2023/12/01 01:48:32;;;;;;;1.00;0.40;;;;;;;;;;5111852;28;20420;-72
2023/12/01 01:51:05;;;;;;;0.25;0.20;;;;;;;;;;5111579;28;20130;-73
2023/12/01 01:53:33;;;;;;;0.98;0.40;;;;;;;;;;5111695;28;20071;-72
2023/12/01 01:56:00;;;;;;;0.73;0.40;;;;;;;;;;5112263;28;20053;-73
2023/12/01 01:58:28;;;;;;;0.30;0.30;;;;;;;;;;5093871;28;20516;-74
2023/12/01 02:00:54;;;;;;;0.22;0.20;;;;;;;;;;5112321;28;20048;-74
2023/12/01 02:03:23;;;;;;;0.32;0.30;;;;;;;;;;5112193;28;20134;-73
2023/12/01 02:05:50;;;;;;;0.40;0.28;;;;;;;;;;5111939;28;20530;-73
2023/12/01 02:08:24;;;;;;;0.68;0.25;;;;;;;;;;5094155;28;20060;-72
2023/12/01 02:10:55;;;;;;;0.52;0.30;;;;;;;;;;5111934;28;20487;-72
2023/12/01 02:13:23;;;;;;;0.57;0.30;;;;;;;;;;5112123;28;20052;-73
2023/12/01 02:15:51;;;;;;;0.30;0.25;;;;;;;;;;5111895;28;20047;-73
2023/12/01 02:18:19;;;;;;;0.57;0.35;;;;;;;;;;5093869;28;20043;-72
2023/12/01 02:20:46;;;;;;;0.20;0.20;;;;;;;;;;5111277;28;20048;-72
2023/12/01 02:23:12;;;;;;;0.38;0.20;;;;;;;;;;5111775;28;20047;-72
2023/12/01 02:25:39;;;;;;;0.70;0.40;;;;;;;;;;5111105;28;20055;-72
2023/12/01 02:28:06;;;;;;;1.75;0.30;;;;;;;;;;5112076;28;20047;-72
2023/12/01 02:30:36;;;;;;;0.30;0.30;;;;;;;;;;5111563;28;20447;-73
2023/12/01 02:33:06;;;;;;;0.60;0.40;;;;;;;;;;5111632;28;20525;-73
2023/12/01 02:35:35;;;;;;;1.17;0.38;;;;;;;;;;5111339;28;20134;-73
2023/12/01 02:38:01;;;;;;;0.60;0.32;;;;;;;;;;5111366;28;20056;-72
2023/12/01 02:40:30;;;;;;;0.88;0.55;;;;;;;;;;5110681;28;20490;-74
2023/12/01 02:42:57;;;;;;;0.20;0.20;;;;;;;;;;5093262;28;20632;-72
2023/12/01 02:45:23;;;;;;;0.50;0.40;;;;;;;;;;5110772;28;20049;-72
2023/12/01 02:47:50;;;;;;;0.57;0.30;;;;;;;;;;5111343;28;20064;-72
2023/12/01 02:50:17;;;;;;;0.55;0.35;;;;;;;;;;5111117;28;20044;-72
2023/12/01 02:52:44;;;;;;;0.82;0.50;;;;;;;;;;5111389;28;20622;-72
2023/12/01 02:55:11;;;;;;;0.63;0.50;;;;;;;;;;5110475;28;20415;-72
2023/12/01 02:57:39;;;;;;;1.45;0.55;;;;;;;;;;5111090;28;20048;-71
2023/12/01 03:00:13;;;;;;;0.63;0.52;;;;;;;;;;5110856;28;20043;-72
2023/12/01 03:02:41;;;;;;;0.68;0.45;;;;;;;;;;5110731;28;20051;-72
2023/12/01 03:05:09;;;;;;;0.80;0.43;;;;;;;;;;5110631;28;20044;-72
2023/12/01 03:07:39;;;;;;;1.38;0.50;;;;;;;;;;5110748;28;20039;-72
2023/12/01 03:10:07;;;;;;;0.60;0.52;;;;;;;;;;5110458;28;20514;-72
2023/12/01 03:12:39;;;;;;;0.73;0.60;;;;;;;;;;5110684;28;20054;-72
2023/12/01 03:15:11;;;;;;;0.73;0.45;;;;;;;;;;5110572;28;20039;-73
2023/12/01 03:17:38;;;;;;;0.75;0.50;;;;;;;;;;5110800;28;20112;-72
2023/12/01 03:20:11;;;;;;;0.63;0.32;;;;;;;;;;5110238;28;20415;-72
2023/12/01 03:22:39;;;;;;;1.20;0.57;;;;;;;;;;5110378;28;20101;-72
2023/12/01 03:25:12;;;;;;;1.08;0.70;;;;;;;;;;5109947;28;20044;-73
2023/12/01 03:27:44;;;;;;;0.93;0.50;;;;;;;;;;5110447;28;20055;-72
2023/12/01 03:30:15;;;;;;;0.77;0.50;;;;;;;;;;5110537;28;20090;-74
2023/12/01 03:32:48;;;;;;;0.77;0.50;;;;;;;;;;5110750;28;20070;-74
2023/12/01 03:35:18;;;;;;;0.50;0.38;;;;;;;;;;5110248;28;20134;-74
2023/12/01 03:37:45;;;;;;;1.77;0.50;;;;;;;;;;5092218;28;20046;-72
2023/12/01 03:40:12;;;;;;;0.88;0.60;;;;;;;;;;5109822;28;20047;-72
2023/12/01 03:42:49;;;;;;;0.95;0.50;;;;;;;;;;5110119;28;20062;-72
2023/12/01 03:45:16;;;;;;;0.85;0.50;;;;;;;;;;5109949;28;20546;-72
2023/12/01 03:47:45;;;;;;;0.60;0.50;;;;;;;;;;5109837;28;20487;-72
2023/12/01 03:50:13;;;;;;;1.33;0.60;;;;;;;;;;5110239;28;20044;-72
2023/12/01 03:52:41;;;;;;;1.02;0.38;;;;;;;;;;5109731;28;20066;-72
2023/12/01 03:55:10;;;;;;;0.70;0.43;;;;;;;;;;5109614;28;20043;-72
2023/12/01 03:57:41;;;;;;;0.28;0.28;;;;;;;;;;5109889;28;20047;-71
2023/12/01 04:00:14;;;;;;;0.45;0.30;;;;;;;;;;5109564;28;20487;-72
2023/12/01 04:02:43;;;;;;;0.85;0.47;;;;;;;;;;5109717;28;20048;-71
2023/12/01 04:05:18;;;;;;;0.47;0.30;;;;;;;;;;5109484;28;20039;-71
2023/12/01 04:07:50;;;;;;;1.67;0.40;;;;;;;;;;5109634;28;20074;-71
2023/12/01 04:10:19;;;;;;;0.40;0.40;;;;;;;;;;5109308;28;20163;-71
2023/12/01 04:12:46;;;;;;;0.50;0.30;;;;;;;;;;5109351;28;20094;-71
2023/12/01 04:15:20;;;;;;;0.63;0.40;;;;;;;;;;5109647;28;20047;-71
2023/12/01 04:17:48;;;;;;;0.70;0.45;;;;;;;;;;5109345;28;20048;-71
2023/12/01 04:20:21;;;;;;;0.50;0.43;;;;;;;;;;5108635;28;20055;-71
2023/12/01 04:22:57;;;;;;;0.50;0.40;;;;;;;;;;5109462;28;20043;-73
2023/12/01 04:25:25;;;;;;;0.65;0.50;;;;;;;;;;5108875;28;20048;-71
2023/12/01 04:27:53;;;;;;;1.13;0.40;;;;;;;;;;5109474;28;20047;-71
2023/12/01 04:30:20;;;;;;;1.20;0.70;;;;;;;;;;5109421;28;20039;-72
2023/12/01 04:32:54;;;;;;;0.90;0.60;;;;;;;;;;5108928;28;20138;-71
2023/12/01 04:35:28;;;;;;;0.90;0.57;;;;;;;;;;5109063;28;20048;-71
2023/12/01 04:37:57;;;;;;;0.75;0.50;;;;;;;;;;5109056;28;20051;-73
2023/12/01 04:40:27;;;;;;;0.60;0.50;;;;;;;;;;5108530;28;20051;-74
2023/12/01 04:42:55;;;;;;;0.45;0.30;;;;;;;;;;5108871;28;20512;-71
2023/12/01 04:45:29;;;;;;;0.80;0.50;;;;;;;;;;5108373;28;20046;-71
2023/12/01 04:47:56;;;;;;;1.08;0.60;;;;;;;;;;5108479;28;20060;-71
2023/12/01 04:50:23;;;;;;;2.40;0.47;;;;;;;;;;5108443;28;20514;-71
2023/12/01 04:52:55;;;;;;;1.20;0.70;;;;;;;;;;5108005;28;20514;-71
2023/12/01 04:55:25;;;;;;;0.80;0.52;;;;;;;;;;5107802;28;20035;-70
2023/12/01 04:57:52;;;;;;;0.70;0.50;;;;;;;;;;5118491;27;20495;-71
2023/12/01 05:00:23;;;;;;;1.23;0.50;;;;;;;;;;5117112;27;20047;-71
2023/12/01 05:02:50;;;;;;;0.75;0.50;;;;;;;;;;5118485;27;20115;-71
2023/12/01 05:05:18;;;;;;;1.42;0.60;;;;;;;;;;5119451;27;20040;-70
2023/12/01 05:07:49;;;;;;;3.20;0.80;;;;;;;;;;5117744;27;20047;-71
2023/12/01 05:10:17;;;;;;;0.73;0.60;;;;;;;;;;5117440;28;20107;-71
2023/12/01 05:12:46;;;;;;;0.95;0.70;;;;;;;;;;5117315;28;20100;-71
2023/12/01 05:15:20;;;;;;;0.95;0.57;;;;;;;;;;5118048;27;20039;-71
2023/12/01 05:17:55;;;;;;;0.30;0.30;;;;;;;;;;5121643;27;20053;-71
2023/12/01 05:20:25;;;;;;;1.27;0.40;;;;;;;;;;5120796;27;20139;-71
2023/12/01 05:22:54;;;;;;;0.73;0.50;;;;;;;;;;5119426;27;20047;-71
2023/12/01 05:25:25;;;;;;;0.40;0.30;;;;;;;;;;5112429;28;20293;-71
2023/12/01 05:27:53;;;;;;;;;;;;;;;;;;5113069;28;20054;-70
2023/12/01 05:30:25;;;;;;;0.82;0.57;;;;;;;;;;5112845;28;19920;-70
2023/12/01 05:32:53;;;;;;;0.55;0.50;;;;;;;;;;5112505;28;20059;-71
2023/12/01 05:35:20;;;;;;;0.43;0.40;;;;;;;;;;5112410;28;20051;-71
2023/12/01 05:37:53;;;;;;;1.10;0.70;;;;;;;;;;5112259;28;20063;-71
2023/12/01 05:40:23;;;;;;;1.13;0.80;;;;;;;;;;5112032;28;20640;-73
2023/12/01 05:42:54;;;;;;;0.67;0.50;;;;;;;;;;5112617;28;20043;-71
2023/12/01 05:45:22;;;;;;;1.65;0.60;;;;;;;;;;5112428;28;20321;-71
2023/12/01 05:47:52;;;;;;;0.50;0.40;;;;;;;;;;5112480;28;20084;-70
2023/12/01 05:50:27;;;;;;;1.50;0.60;;;;;;;;;;5112288;28;20509;-71
2023/12/01 05:52:56;;;;;;;0.80;0.52;;;;;;;;;;5111943;28;20047;-71
2023/12/01 05:55:26;;;;;;;0.80;0.50;;;;;;;;;;5111834;28;20455;-74
2023/12/01 05:58:01;;;;;;;0.70;0.45;;;;;;;;;;5112099;28;20105;-70
2023/12/01 06:00:29;;;;;;;0.70;0.52;;;;;;;;;;5112153;28;20126;-70
2023/12/01 06:02:59;;;;;;;0.70;0.50;;;;;;;;;;5093835;28;20476;-71
2023/12/01 06:05:26;;;;;;;1.15;0.60;;;;;;;;;;5111867;28;20048;-70
2023/12/01 06:07:55;;;;;;;1.02;0.68;;;;;;;;;;5112123;28;20055;-70
2023/12/01 06:10:24;;;;;;;0.52;0.43;;;;;;;;;;5111880;28;20051;-70
2023/12/01 06:12:51;;;;;;;0.80;0.40;;;;;;;;;;5111580;28;20066;-71
2023/12/01 06:15:19;;;;;;;0.55;0.45;;;;;;;;;;5111761;28;20062;-70
2023/12/01 06:17:49;;;;;;;0.85;0.57;;;;;;;;;;5111772;28;20043;-71
2023/12/01 06:20:20;;;;;;;;;;;;;;;;;;5112159;28;20047;-71
2023/12/01 06:22:48;;;;;;;0.90;0.45;;;;;;;;;;5111272;28;19923;-72
2023/12/01 06:25:17;;;;;;;1.00;0.40;;;;;;;;;;5111334;28;20050;-73
2023/12/01 06:27:44;;;;;;;1.00;0.65;;;;;;;;;;5111027;28;20043;-73
2023/12/01 06:30:13;;;;;;;0.73;0.70;;;;;;;;;;5111346;28;20043;-73
2023/12/01 06:32:44;;;;;;;1.73;0.80;;;;;;;;;;5111114;28;20055;-70
2023/12/01 06:35:15;;;;;;;1.85;0.95;;;;;;;;;;5111183;28;20131;-73
2023/12/01 06:37:43;;;;;;;1.40;0.75;;;;;;;;;;5111036;28;20044;-73
2023/12/01 06:40:20;;;;;;;1.13;0.70;;;;;;;;;;5111099;28;20112;-71
2023/12/01 06:42:52;;;;;;;0.70;0.60;;;;;;;;;;5111028;28;20079;-70
2023/12/01 06:45:21;;;;;;;0.63;0.50;;;;;;;;;;5111048;28;20087;-71
2023/12/01 06:47:50;;;;;;;0.73;0.70;;;;;;;;;;5110983;28;20079;-73
2023/12/01 06:50:19;;;;;;;0.60;0.50;;;;;;;;;;5111506;28;20120;-73
2023/12/01 06:52:48;;;;;;;1.17;0.68;;;;;;;;;;5110922;28;20109;-73
2023/12/01 06:55:16;;;;;;;1.38;0.80;;;;;;;;;;5110435;28;20050;-74
2023/12/01 06:57:45;;;;;;;0.93;0.70;;;;;;;;;;5110756;28;20079;-71
2023/12/01 07:00:33;;;;;;;1.13;0.75;;;;;;;;;;5110603;28;20135;-72
2023/12/01 07:03:09;;;;;;;1.15;0.63;;;;;;;;;;5110797;28;20385;-74
2023/12/01 07:05:39;;;;;;;1.42;0.98;;;;;;;;;;5111235;28;20074;-74
2023/12/01 07:08:13;;;;;;;1.17;0.80;;;;;;;;;;5110808;28;20043;-73
2023/12/01 07:10:42;;;;;;;0.82;0.60;;;;;;;;;;5110707;28;20445;-70
2023/12/01 07:13:09;;;;;;;1.50;1.00;;;;;;;;;;5110473;28;20590;-73
2023/12/01 07:15:37;;;;;;;1.42;0.82;;;;;;;;;;5110613;28;20047;-71
2023/12/01 07:18:04;;;;;;;1.30;1.10;;;;;;;;;;5110629;28;20051;-71
2023/12/01 07:20:33;;;;;;;2.35;1.25;;;;;;;;;;5092411;28;20051;-74
2023/12/01 07:23:00;;;;;;;1.60;1.20;;;;;;;;;;5092533;28;20104;-71
2023/12/01 07:25:31;;;;;;;2.05;1.50;;;;;;;;;;5092491;28;20593;-71
2023/12/01 07:27:59;;;;;;;2.65;1.33;;;;;;;;;;5110268;28;20491;-71
2023/12/01 07:30:27;;;;;;;1.75;1.25;;;;;;;;;;5110598;28;20067;-71
2023/12/01 07:32:56;;;;;;;2.42;1.50;;;;;;;;;;5110417;28;20147;-73
2023/12/01 07:35:23;;;;;;;1.75;1.23;;;;;;;;;;5110588;28;20039;-73
2023/12/01 07:37:52;;;;;;;1.83;1.35;;;;;;;;;;5110273;28;20464;-73
2023/12/01 07:40:21;;;;;;;1.67;1.20;;;;;;;;;;5109024;28;20510;-73
2023/12/01 07:42:49;;;;;;;1.27;1.00;;;;;;;;;;5110337;28;20350;-72
2023/12/01 07:45:17;;;;;;;2.42;1.50;;;;;;;;;;5110219;28;20044;-72
2023/12/01 07:47:48;;;;;;;1.85;1.20;;;;;;;;;;5109889;28;20051;-72
2023/12/01 07:50:16;;;;;;;1.85;1.20;;;;;;;;;;5109641;28;20782;-72
2023/12/01 07:52:45;;;;;;;1.95;1.30;;;;;;;;;;5109819;28;20073;-72
2023/12/01 07:55:11;;;;;;;1.80;1.10;;;;;;;;;;5109276;28;20047;-72
2023/12/01 07:57:38;;;;;;;1.83;1.15;;;;;;;;;;5109517;28;20130;-72
2023/12/01 08:00:16;;;;;;;3.10;1.90;;;;;;;;;;5109589;28;20044;-72
2023/12/01 08:02:45;;;;;;;2.85;1.70;;;;;;;;;;5110033;28;20044;-72
2023/12/01 08:05:15;;;;;;;3.63;1.80;;;;;;;;;;5109838;28;20075;-72
2023/12/01 08:07:45;;;;;;;2.30;1.40;;;;;;;;;;5109457;28;20071;-72
2023/12/01 08:10:15;;;;;;;2.80;1.70;;;;;;;;;;5109458;28;20537;-72
2023/12/01 08:12:44;;;;;;;2.90;1.77;;;;;;;;;;5109305;28;20047;-73
2023/12/01 08:15:11;;;;;;;2.95;1.75;;;;;;;;;;5109290;28;20047;-72
2023/12/01 08:17:42;;;;;;;3.38;1.63;;;;;;;;;;5072658;28;20054;-72
2023/12/01 08:20:12;;;;;;;3.33;1.85;;;;;;;;;;5109181;28;20043;-72
2023/12/01 08:22:43;;;;;;;3.33;1.80;;;;;;;;;;5109459;28;20048;-73
2023/12/01 08:25:09;;;;;;;2.97;1.73;;;;;;;;;;5109168;28;20079;-72
2023/12/01 08:27:37;;;;;;;2.80;1.80;;;;;;;;;;5109507;28;20048;-72
2023/12/01 08:30:05;;;;;;;5.53;2.20;;;;;;;;;;5108844;28;20052;-73
2023/12/01 08:32:32;;;;;;;2.67;1.60;;;;;;;;;;5109405;28;20055;-73
2023/12/01 08:34:59;;;;;;;2.40;1.58;;;;;;;;;;5108919;28;20050;-73
2023/12/01 08:37:26;;;;;;;3.65;1.98;;;;;;;;;;5109282;28;20044;-72
2023/12/01 08:39:53;;;;;;;3.35;1.80;;;;;;;;;;5108793;28;20050;-72
2023/12/01 08:42:19;;;;;;;2.45;1.67;;;;;;;;;;5109043;28;20075;-73
2023/12/01 08:44:46;;;;;;;2.40;1.55;;;;;;;;;;5108881;28;20047;-72
2023/12/01 08:47:15;;;;;;;3.30;2.08;;;;;;;;;;5109167;28;20039;-72
2023/12/01 08:49:41;;;;;;;2.97;1.98;;;;;;;;;;5108459;28;20050;-72
2023/12/01 08:52:08;;;;;;;4.07;2.25;;;;;;;;;;5109029;28;20055;-72
2023/12/01 08:54:35;;;;;;;3.05;1.70;;;;;;;;;;5108208;28;20411;-72
2023/12/01 08:57:02;;;;;;;2.83;1.92;;;;;;;;;;5108854;28;20798;-72
2023/12/01 08:59:28;;;;;;;2.40;1.60;;;;;;;;;;5109075;28;20052;-72
2023/12/01 09:01:55;;;;;;;1.77;1.20;;;;;;;;;;5109034;28;20047;-72
2023/12/01 09:04:22;;;;;;;2.88;1.58;;;;;;;;;;5108963;28;20052;-73
2023/12/01 09:06:49;;;;;;;2.47;1.55;;;;;;;;;;5108667;28;20044;-72
2023/12/01 09:09:15;;;;;;;2.47;1.70;;;;;;;;;;5108304;28;20048;-72
2023/12/01 09:11:42;;;;;;;6.20;2.65;;;;;;;;;;5108887;28;20136;-72
2023/12/01 09:14:09;;;;;;;2.45;1.67;;;;;;;;;;5108691;28;20048;-73
2023/12/01 09:16:35;;;;;;;2.42;1.65;;;;;;;;;;5108353;28;20419;-72
2023/12/01 09:19:02;;;;;;;4.03;2.58;;;;;;;;;;5108913;28;20043;-72
2023/12/01 09:21:32;;;;;;;3.60;2.10;;;;;;;;;;5108804;28;20056;-72
2023/12/01 09:23:59;;;;;;;3.03;1.70;;;;;;;;;;5108336;28;20054;-72
2023/12/01 09:26:26;;;;;;;3.78;1.98;;;;;;;;;;5108419;28;20499;-72
2023/12/01 09:28:52;;;;;;;5.53;2.65;;;;;;;;;;5108914;28;20051;-72
2023/12/01 09:31:19;;;;;;;4.80;1.65;;;;;;;;;;5108224;28;20108;-72
2023/12/01 09:33:47;;;;;;;2.95;1.90;;;;;;;;;;5108691;28;20105;-72
2023/12/01 09:36:17;;;;;;;2.50;1.58;;;;;;;;;;5108444;28;20446;-72
2023/12/01 09:38:44;;;;;;;3.60;1.85;;;;;;;;;;5108559;28;20048;-72
2023/12/01 09:41:11;;;;;;;2.10;1.50;;;;;;;;;;5090298;28;20050;-72
2023/12/01 09:43:38;;;;;;;4.32;2.50;;;;;;;;;;5108322;28;20047;-73
2023/12/01 09:46:07;;;;;;;4.13;2.58;;;;;;;;;;5108164;28;20094;-72
2023/12/01 09:48:34;;;;;;;3.47;2.42;;;;;;;;;;5108284;28;20511;-72
2023/12/01 09:51:01;;;;;;;4.28;2.90;;;;;;;;;;5108302;28;20060;-72
2023/12/01 09:53:28;;;;;;;3.60;2.58;;;;;;;;;;5108151;28;20043;-72
2023/12/01 09:55:56;;;;;;;5.53;2.03;;;;;;;;;;5108291;28;20051;-72
2023/12/01 09:58:26;;;;;;;4.05;2.58;;;;;;;;;;5108584;28;20044;-72
2023/12/01 10:00:53;;;;;;;3.63;2.10;;;;;;;;;;5108184;28;20047;-72
2023/12/01 10:03:20;;;;;;;3.38;2.20;;;;;;;;;;5111204;28;20289;-72
2023/12/01 10:05:47;;;;;;;3.88;2.33;;;;;;;;;;5111960;28;20102;-72
2023/12/01 10:08:16;;;;;;;4.70;2.33;;;;;;;;;;5093574;28;20044;-72
2023/12/01 10:10:44;;;;;;;3.85;2.30;;;;;;;;;;5111838;28;20050;-72
2023/12/01 10:13:11;;;;;;;3.17;1.63;;;;;;;;;;5111663;28;20051;-71
2023/12/01 10:15:40;;;;;;;2.95;1.90;;;;;;;;;;5111718;28;20047;-72
2023/12/01 10:18:11;;;;;;;2.58;1.58;;;;;;;;;;5111852;28;20044;-73
2023/12/01 10:21:03;;;;;;;3.47;1.85;;;;;;;;;;5111732;28;20048;-72
2023/12/01 10:23:33;;;;;;;3.00;1.90;;;;;;;;;;5111851;28;20050;-72
2023/12/01 10:26:04;;;;;;;3.72;1.65;;;;;;;;;;5111626;28;20048;-72
2023/12/01 10:28:41;;;;;;;3.22;1.60;;;;;;;;;;5111429;28;20082;-72
2023/12/01 10:31:09;;;;;;;1.73;1.30;;;;;;;;;;5111724;28;20043;-72
2023/12/01 10:33:37;;;;;;;2.08;1.30;;;;;;;;;;5111514;28;20052;-72
2023/12/01 10:36:09;;;;;;;2.90;1.50;;;;;;;;;;5111355;28;20428;-73
2023/12/01 10:38:36;;;;;;;1.58;1.10;;;;;;;;;;5110951;28;20067;-72
2023/12/01 10:41:06;;;;;;;1.58;0.95;;;;;;;;;;5111439;28;20113;-72
2023/12/01 10:43:34;;;;;;;1.40;0.85;;;;;;;;;;5111598;28;20132;-72
2023/12/01 10:46:05;;;;;;;2.00;0.93;;;;;;;;;;5111304;28;20169;-72
2023/12/01 10:48:34;;;;;;;1.83;0.98;;;;;;;;;;5111389;28;20119;-72
2023/12/01 10:51:05;;;;;;;1.60;0.77;;;;;;;;;;5111012;28;20044;-72
2023/12/01 10:53:37;;;;;;;1.70;0.90;;;;;;;;;;5109888;28;20051;-72
2023/12/01 10:56:11;;;;;;;2.67;1.00;;;;;;;;;;5111308;28;20051;-72
2023/12/01 10:58:39;;;;;;;1.48;0.93;;;;;;;;;;5120050;27;20128;-72
2023/12/01 11:01:07;;;;;;;2.20;0.90;;;;;;;;;;5117685;27;20044;-72
2023/12/01 11:03:38;;;;;;;0.88;0.60;;;;;;;;;;5111402;28;20044;-72
2023/12/01 11:06:10;;;;;;;1.33;0.93;;;;;;;;;;5110728;28;20047;-73
2023/12/01 11:08:51;;;;;;;1.63;1.10;;;;;;;;;;5110138;28;20138;-72
2023/12/01 11:11:26;;;;;;;;;;;;;;;;;;5111173;28;20460;-73
2023/12/01 11:14:08;;;;;;;2.10;0.90;;;;;;;;;;5109723;28;19920;-72
2023/12/01 11:16:35;;;;;;;4.72;1.00;;;;;;;;;;5110892;28;20076;-73
2023/12/01 11:19:01;;;;;;;1.40;0.90;;;;;;;;;;5110872;28;20164;-71
2023/12/01 11:21:29;;;;;;;1.60;1.05;;;;;;;;;;5110511;28;20136;-71
2023/12/01 11:24:22;;;;;;;1.15;0.90;;;;;;;;;;5110321;28;20483;-71
2023/12/01 11:26:51;;;;;;;1.65;1.08;;;;;;;;;;5110493;28;20047;-71
2023/12/01 11:29:28;;;;;;;1.52;0.80;;;;;;;;;;5110544;28;20043;-71
2023/12/01 11:31:58;;;;;;;1.67;1.08;;;;;;;;;;5110337;28;20096;-72
2023/12/01 11:34:25;;;;;;;1.97;1.03;;;;;;;;;;5110779;28;20063;-72
2023/12/01 11:36:53;;;;;;;1.30;0.90;;;;;;;;;;5110243;28;20047;-71
2023/12/01 11:39:31;;;;;;;3.53;1.00;;;;;;;;;;5110020;28;20473;-71
2023/12/01 11:41:57;;;;;;;1.63;1.00;;;;;;;;;;5110161;28;20055;-71
2023/12/01 11:44:40;;;;;;;1.80;0.98;;;;;;;;;;5110636;28;20048;-73
2023/12/01 11:47:12;;;;;;;1.48;0.90;;;;;;;;;;5109675;28;20047;-71
2023/12/01 11:49:44;;;;;;;1.70;1.10;;;;;;;;;;5092494;28;20044;-73
2023/12/01 11:52:24;;;;;;;2.13;1.17;;;;;;;;;;5109982;28;20047;-71
2023/12/01 11:54:51;;;;;;;1.98;1.15;;;;;;;;;;5091636;28;20550;-71
2023/12/01 11:57:18;;;;;;;1.95;1.30;;;;;;;;;;5109846;28;20048;-71
2023/12/01 11:59:47;;;;;;;1.73;1.00;;;;;;;;;;5110419;28;20134;-71
2023/12/01 12:02:14;;;;;;;1.83;1.20;;;;;;;;;;5109827;28;20044;-71
2023/12/01 12:04:46;;;;;;;3.25;1.40;;;;;;;;;;5109957;28;20050;-71
2023/12/01 12:07:15;;;;;;;;;;;;;;;;;;5092526;28;20051;-71
2023/12/01 12:09:44;;;;;;;1.83;1.02;;;;;;;;;;5109368;28;19920;-72
2023/12/01 12:12:13;;;;;;;2.78;1.40;;;;;;;;;;5110052;28;20054;-71
2023/12/01 12:14:41;;;;;;;1.27;0.90;;;;;;;;;;5109631;28;20079;-71
2023/12/01 12:17:08;;;;;;;2.35;1.10;;;;;;;;;;5109892;28;20127;-69
2023/12/01 12:19:43;;;;;;;2.50;1.00;;;;;;;;;;5109515;28;20044;-71
2023/12/01 12:22:19;;;;;;;1.60;1.02;;;;;;;;;;5109475;28;20039;-71
2023/12/01 12:24:46;;;;;;;2.80;1.10;;;;;;;;;;5108889;28;20048;-72
2023/12/01 12:27:14;;;;;;;2.70;1.40;;;;;;;;;;5109484;28;20051;-71
2023/12/01 12:29:41;;;;;;;2.15;1.00;;;;;;;;;;5109297;28;20048;-71
2023/12/01 12:32:08;;;;;;;2.13;1.13;;;;;;;;;;5109537;28;20071;-72
2023/12/01 12:34:35;;;;;;;1.58;1.00;;;;;;;;;;5109703;28;20047;-72
2023/12/01 12:37:03;;;;;;;1.95;1.05;;;;;;;;;;5109258;28;20604;-71
2023/12/01 12:39:31;;;;;;;1.35;0.90;;;;;;;;;;5109090;28;20054;-72
2023/12/01 12:41:59;;;;;;;1.20;0.90;;;;;;;;;;5108857;28;20055;-71
2023/12/01 12:44:29;;;;;;;1.30;0.90;;;;;;;;;;5109425;28;20048;-71
2023/12/01 12:47:02;;;;;;;1.23;0.83;;;;;;;;;;5109099;28;20039;-71
2023/12/01 12:49:33;;;;;;;1.70;1.10;;;;;;;;;;5109174;28;20047;-71
2023/12/01 12:52:02;;;;;;;1.77;1.00;;;;;;;;;;5109177;28;20060;-71
2023/12/01 12:54:29;;;;;;;3.00;1.20;;;;;;;;;;5108546;28;20510;-71
2023/12/01 12:56:55;;;;;;;2.10;1.30;;;;;;;;;;5109068;28;20082;-72
2023/12/01 12:59:23;;;;;;;3.70;1.15;;;;;;;;;;5109109;28;20108;-71
2023/12/01 13:01:50;;;;;;;2.67;1.30;;;;;;;;;;5108619;28;20504;-71
2023/12/01 13:04:17;;;;;;;2.58;1.20;;;;;;;;;;5108834;28;20415;-72
2023/12/01 13:06:45;;;;;;;2.13;1.30;;;;;;;;;;5108517;28;20044;-71
2023/12/01 13:09:18;;;;;;;2.55;1.50;;;;;;;;;;5108572;28;20059;-72
2023/12/01 13:11:46;;;;;;;1.67;1.13;;;;;;;;;;5108830;28;20044;-73
2023/12/01 13:14:13;;;;;;;1.90;1.20;;;;;;;;;;5109198;28;20075;-72
2023/12/01 13:16:41;;;;;;;2.08;1.20;;;;;;;;;;5109003;28;20039;-73
2023/12/01 13:19:22;;;;;;;2.35;1.33;;;;;;;;;;5108847;28;20044;-73
2023/12/01 13:21:49;;;;;;;1.85;1.10;;;;;;;;;;5090336;28;20062;-73
2023/12/01 13:24:21;;;;;;;1.98;1.08;;;;;;;;;;5108537;28;20502;-73
2023/12/01 13:26:48;;;;;;;2.15;1.40;;;;;;;;;;5108632;28;20428;-72
2023/12/01 13:29:15;;;;;;;1.65;0.90;;;;;;;;;;5108534;28;20077;-73
2023/12/01 13:31:42;;;;;;;1.80;1.02;;;;;;;;;;5108935;28;20127;-72
2023/12/01 13:34:09;;;;;;;2.13;0.90;;;;;;;;;;5108834;28;20044;-72
2023/12/01 13:36:36;;;;;;;1.27;0.70;;;;;;;;;;5108676;28;20048;-73
2023/12/01 13:39:02;;;;;;;1.08;0.80;;;;;;;;;;5112256;28;20040;-72
2023/12/01 13:41:30;;;;;;;1.23;0.73;;;;;;;;;;5112884;28;20046;-73
2023/12/01 13:43:58;;;;;;;1.95;1.00;;;;;;;;;;5112419;28;20040;-73
2023/12/01 13:46:25;;;;;;;1.58;1.00;;;;;;;;;;5112768;28;20048;-73
2023/12/01 13:48:51;;;;;;;1.92;1.00;;;;;;;;;;5112240;28;20065;-73
2023/12/01 13:51:18;;;;;;;1.13;0.90;;;;;;;;;;5112611;28;20047;-73
2023/12/01 13:53:45;;;;;;;2.35;1.00;;;;;;;;;;5112212;28;20055;-73
2023/12/01 13:56:12;;;;;;;1.25;0.90;;;;;;;;;;5112606;28;20047;-72
2023/12/01 13:58:40;;;;;;;1.25;0.70;;;;;;;;;;5112361;28;20048;-73
2023/12/01 14:01:13;;;;;;;0.63;0.60;;;;;;;;;;5094916;28;20051;-73
2023/12/01 14:03:39;;;;;;;2.25;0.88;;;;;;;;;;5111972;28;20638;-73
2023/12/01 14:06:06;;;;;;;1.70;0.85;;;;;;;;;;5112330;28;20503;-73
2023/12/01 14:08:34;;;;;;;1.48;0.98;;;;;;;;;;5111751;28;20051;-73
2023/12/01 14:11:02;;;;;;;1.75;1.00;;;;;;;;;;5112309;28;20399;-72
2023/12/01 14:13:29;;;;;;;1.65;0.95;;;;;;;;;;5111884;28;20454;-72
2023/12/01 14:15:56;;;;;;;1.42;0.82;;;;;;;;;;5112314;28;20043;-73
2023/12/01 14:18:22;;;;;;;1.75;1.00;;;;;;;;;;5111671;28;20048;-72
2023/12/01 14:20:49;;;;;;;2.88;1.50;;;;;;;;;;5111891;28;20047;-72
2023/12/01 14:23:16;;;;;;;1.65;0.90;;;;;;;;;;5111348;28;20047;-73
2023/12/01 14:25:43;;;;;;;1.23;0.90;;;;;;;;;;5112350;28;20054;-73
2023/12/01 14:28:09;;;;;;;1.98;0.80;;;;;;;;;;5111612;28;20051;-72
2023/12/01 14:30:36;;;;;;;1.13;0.80;;;;;;;;;;5112000;28;20075;-72
2023/12/01 14:33:03;;;;;;;1.05;0.80;;;;;;;;;;5112048;28;20083;-73
2023/12/01 14:35:30;;;;;;;1.90;1.00;;;;;;;;;;5111869;28;20058;-72
2023/12/01 14:37:58;;;;;;;1.33;0.93;;;;;;;;;;5111391;28;20554;-73
2023/12/01 14:40:24;;;;;;;1.67;1.10;;;;;;;;;;5111290;28;20346;-73
2023/12/01 14:42:51;;;;;;;1.67;1.10;;;;;;;;;;5111539;28;20044;-73
2023/12/01 14:45:18;;;;;;;2.83;1.10;;;;;;;;;;5111633;28;20048;-73
2023/12/01 14:47:48;;;;;;;1.80;1.08;;;;;;;;;;5111096;28;20047;-74
2023/12/01 14:50:15;;;;;;;1.95;1.02;;;;;;;;;;5111628;28;20047;-73
2023/12/01 14:52:42;;;;;;;1.27;1.05;;;;;;;;;;5111439;28;20515;-73